sensor_id;sensor_type;location;lat;lon;timestamp;pressure;altitude;pressure_sealevel;temperature;humidity
11049;BME280;5577;42.706;23.160;2023-08-12T00:00:44;94740.50;;;15.87;100.00
11049;BME280;5577;42.706;23.160;2023-08-12T00:03:28;94738.53;;;15.84;100.00
11049;BME280;5577;42.706;23.160;2023-08-12T00:06:12;94740.78;;;15.78;100.00
11049;BME280;5577;42.706;23.160;2023-08-12T00:08:57;94736.94;;;15.76;100.00
11049;BME280;5577;42.706;23.160;2023-08-12T00:11:40;94737.28;;;15.74;100.00
11049;BME280;5577;42.706;23.160;2023-08-12T00:14:25;94735.34;;;15.71;100.00
11049;BME280;5577;42.706;23.160;2023-08-12T00:17:08;94733.75;;;15.67;100.00
11049;BME280;5577;42.706;23.160;2023-08-12T00:19:52;94730.28;;;15.63;100.00
11049;BME280;5577;42.706;23.160;2023-08-12T00:22:37;94725.00;;;15.66;100.00
11049;BME280;5577;42.706;23.160;2023-08-12T00:25:21;94730.38;;;15.70;100.00
11049;BME280;5577;42.706;23.160;2023-08-12T00:28:05;94726.53;;;15.67;100.00
11049;BME280;5577;42.706;23.160;2023-08-12T00:30:49;94729.91;;;15.64;100.00
11049;BME280;5577;42.706;23.160;2023-08-12T00:33:33;94724.59;;;15.64;100.00
11049;BME280;5577;42.706;23.160;2023-08-12T00:36:17;94724.19;;;15.62;100.00
11049;BME280;5577;42.706;23.160;2023-08-12T00:39:01;94730.25;;;15.59;100.00
11049;BME280;5577;42.706;23.160;2023-08-12T00:41:45;94729.44;;;15.55;100.00
11049;BME280;5577;42.706;23.160;2023-08-12T00:44:29;94730.97;;;15.56;100.00
11049;BME280;5577;42.706;23.160;2023-08-12T00:47:14;94726.44;;;15.60;100.00
11049;BME280;5577;42.706;23.160;2023-08-12T00:49:58;94721.88;;;15.61;100.00
11049;BME280;5577;42.706;23.160;2023-08-12T00:52:43;94716.47;;;15.57;100.00
11049;BME280;5577;42.706;23.160;2023-08-12T00:55:28;94716.09;;;15.55;100.00
11049;BME280;5577;42.706;23.160;2023-08-12T00:58:12;94713.88;;;15.61;100.00
11049;BME280;5577;42.706;23.160;2023-08-12T01:00:56;94705.88;;;15.61;100.00
11049;BME280;5577;42.706;23.160;2023-08-12T01:03:41;94705.44;;;15.59;100.00
11049;BME280;5577;42.706;23.160;2023-08-12T01:06:25;94706.53;;;15.54;100.00
11049;BME280;5577;42.706;23.160;2023-08-12T01:09:10;94706.50;;;15.51;100.00
11049;BME280;5577;42.706;23.160;2023-08-12T01:12:09;94708.31;;;15.43;100.00
11049;BME280;5577;42.706;23.160;2023-08-12T01:15:01;94708.22;;;15.36;100.00
11049;BME280;5577;42.706;23.160;2023-08-12T01:17:47;94711.47;;;15.26;100.00
11049;BME280;5577;42.706;23.160;2023-08-12T01:20:36;94692.16;;;15.07;100.00
11049;BME280;5577;42.706;23.160;2023-08-12T01:23:21;94719.00;;;15.21;100.00
11049;BME280;5577;42.706;23.160;2023-08-12T01:26:05;94714.81;;;15.20;100.00
11049;BME280;5577;42.706;23.160;2023-08-12T01:28:49;94673.75;;;14.98;100.00
11049;BME280;5577;42.706;23.160;2023-08-12T01:31:40;94713.69;;;15.21;100.00
11049;BME280;5577;42.706;23.160;2023-08-12T01:37:30;94710.16;;;15.13;100.00
11049;BME280;5577;42.706;23.160;2023-08-12T01:40:16;94711.28;;;15.12;100.00
11049;BME280;5577;42.706;23.160;2023-08-12T01:43:02;94697.44;;;15.03;100.00
11049;BME280;5577;42.706;23.160;2023-08-12T01:45:47;94711.22;;;15.09;100.00
11049;BME280;5577;42.706;23.160;2023-08-12T01:48:31;94713.09;;;15.05;100.00
11049;BME280;5577;42.706;23.160;2023-08-12T01:51:15;94694.56;;;14.89;100.00
11049;BME280;5577;42.706;23.160;2023-08-12T01:53:59;94714.13;;;14.97;100.00
11049;BME280;5577;42.706;23.160;2023-08-12T01:56:43;94718.22;;;14.91;100.00
11049;BME280;5577;42.706;23.160;2023-08-12T01:59:27;94715.81;;;14.86;100.00
11049;BME280;5577;42.706;23.160;2023-08-12T02:02:11;94720.75;;;14.84;100.00
11049;BME280;5577;42.706;23.160;2023-08-12T02:04:55;94717.38;;;14.87;100.00
11049;BME280;5577;42.706;23.160;2023-08-12T02:07:39;94718.09;;;14.84;100.00
11049;BME280;5577;42.706;23.160;2023-08-12T02:10:23;94723.06;;;14.85;100.00
11049;BME280;5577;42.706;23.160;2023-08-12T02:13:07;94718.81;;;14.81;100.00
11049;BME280;5577;42.706;23.160;2023-08-12T02:15:51;94717.28;;;14.80;100.00
11049;BME280;5577;42.706;23.160;2023-08-12T02:18:35;94716.47;;;14.76;100.00
11049;BME280;5577;42.706;23.160;2023-08-12T02:21:19;94715.69;;;14.75;100.00
11049;BME280;5577;42.706;23.160;2023-08-12T02:24:03;94707.50;;;14.65;100.00
11049;BME280;5577;42.706;23.160;2023-08-12T02:26:47;94707.47;;;14.61;100.00
11049;BME280;5577;42.706;23.160;2023-08-12T02:29:31;94701.00;;;14.62;100.00
11049;BME280;5577;42.706;23.160;2023-08-12T02:32:16;94718.47;;;14.60;100.00
11049;BME280;5577;42.706;23.160;2023-08-12T02:35:00;94708.63;;;14.64;100.00
11049;BME280;5577;42.706;23.160;2023-08-12T02:37:44;94713.59;;;14.65;100.00
11049;BME280;5577;42.706;23.160;2023-08-12T02:40:28;94717.41;;;14.64;100.00
11049;BME280;5577;42.706;23.160;2023-08-12T02:43:12;94716.50;;;14.57;100.00
11049;BME280;5577;42.706;23.160;2023-08-12T02:45:56;94701.47;;;14.45;100.00
11049;BME280;5577;42.706;23.160;2023-08-12T02:48:40;94714.91;;;14.52;100.00
11049;BME280;5577;42.706;23.160;2023-08-12T02:51:24;94722.97;;;14.56;100.00
11049;BME280;5577;42.706;23.160;2023-08-12T02:54:08;94724.09;;;14.55;100.00
11049;BME280;5577;42.706;23.160;2023-08-12T02:56:52;94720.25;;;14.52;100.00
11049;BME280;5577;42.706;23.160;2023-08-12T02:59:36;94719.41;;;14.48;100.00
11049;BME280;5577;42.706;23.160;2023-08-12T03:02:20;94724.63;;;14.41;100.00
11049;BME280;5577;42.706;23.160;2023-08-12T03:05:04;94721.97;;;14.41;100.00
11049;BME280;5577;42.706;23.160;2023-08-12T03:07:49;94726.94;;;14.43;100.00
11049;BME280;5577;42.706;23.160;2023-08-12T03:10:36;94733.03;;;14.43;100.00
11049;BME280;5577;42.706;23.160;2023-08-12T03:13:20;94731.09;;;14.40;100.00
11049;BME280;5577;42.706;23.160;2023-08-12T03:16:04;94735.59;;;14.36;100.00
11049;BME280;5577;42.706;23.160;2023-08-12T03:18:48;94735.97;;;14.38;100.00
11049;BME280;5577;42.706;23.160;2023-08-12T03:21:32;94734.88;;;14.39;100.00
11049;BME280;5577;42.706;23.160;2023-08-12T03:24:15;94723.56;;;14.46;100.00
11049;BME280;5577;42.706;23.160;2023-08-12T03:26:59;94731.13;;;14.43;100.00
11049;BME280;5577;42.706;23.160;2023-08-12T03:29:43;94728.41;;;14.40;100.00
11049;BME280;5577;42.706;23.160;2023-08-12T03:32:27;94734.16;;;14.42;100.00
11049;BME280;5577;42.706;23.160;2023-08-12T03:35:11;94732.56;;;14.38;100.00
11049;BME280;5577;42.706;23.160;2023-08-12T03:37:55;94688.97;;;14.04;100.00
11049;BME280;5577;42.706;23.160;2023-08-12T03:40:40;94719.47;;;14.29;100.00
11049;BME280;5577;42.706;23.160;2023-08-12T03:43:24;94737.41;;;14.32;100.00
